sensor_id;sensor_type;location;lat;lon;timestamp;pressure;altitude;pressure_sealevel;temperature;humidity
65718;BME280;52445;52.466;-1.016;2023-01-01T00:01:36;98587.47;;;10.08;79.54
65718;BME280;52445;52.466;-1.016;2023-01-01T00:04:10;98596.19;;;10.04;78.99
65718;BME280;52445;52.466;-1.016;2023-01-01T00:06:38;98579.00;;;10.01;78.78
65718;BME280;52445;52.466;-1.016;2023-01-01T00:09:04;98589.47;;;9.97;79.17
65718;BME280;52445;52.466;-1.016;2023-01-01T00:11:51;98586.00;;;9.96;78.80
65718;BME280;52445;52.466;-1.016;2023-01-01T00:14:17;98587.91;;;9.89;79.49
65718;BME280;52445;52.466;-1.016;2023-01-01T00:16:44;98588.81;;;9.87;79.11
65718;BME280;52445;52.466;-1.016;2023-01-01T00:19:11;98595.72;;;9.86;79.58
65718;BME280;52445;52.466;-1.016;2023-01-01T00:21:38;98594.00;;;9.87;79.23
65718;BME280;52445;52.466;-1.016;2023-01-01T00:24:06;98609.59;;;9.84;79.60
65718;BME280;52445;52.466;-1.016;2023-01-01T00:26:33;98594.13;;;9.81;79.65
65718;BME280;52445;52.466;-1.016;2023-01-01T00:29:01;98582.81;;;9.85;79.49
65718;BME280;52445;52.466;-1.016;2023-01-01T00:31:29;98589.81;;;9.81;79.64
65718;BME280;52445;52.466;-1.016;2023-01-01T00:33:56;98595.91;;;9.79;79.26
65718;BME280;52445;52.466;-1.016;2023-01-01T00:36:25;98593.44;;;9.74;79.52
65718;BME280;52445;52.466;-1.016;2023-01-01T00:38:52;98596.03;;;9.72;79.57
65718;BME280;52445;52.466;-1.016;2023-01-01T00:41:19;98599.53;;;9.71;79.58
65718;BME280;52445;52.466;-1.016;2023-01-01T00:43:46;98610.03;;;9.63;79.69
65718;BME280;52445;52.466;-1.016;2023-01-01T00:46:13;98610.88;;;9.64;79.84
65718;BME280;52445;52.466;-1.016;2023-01-01T00:48:40;98623.81;;;9.64;79.65
65718;BME280;52445;52.466;-1.016;2023-01-01T00:51:07;98622.13;;;9.63;79.58
65718;BME280;52445;52.466;-1.016;2023-01-01T00:53:33;98628.91;;;9.67;79.72
65718;BME280;52445;52.466;-1.016;2023-01-01T00:56:00;98637.59;;;9.64;79.89
65718;BME280;52445;52.466;-1.016;2023-01-01T00:58:27;98634.84;;;9.71;79.16
65718;BME280;52445;52.466;-1.016;2023-01-01T01:00:53;98632.25;;;9.72;79.61
65718;BME280;52445;52.466;-1.016;2023-01-01T01:03:21;98631.31;;;9.75;79.97
65718;BME280;52445;52.466;-1.016;2023-01-01T01:08:39;98640.88;;;9.71;78.91
65718;BME280;52445;52.466;-1.016;2023-01-01T01:11:12;98658.16;;;9.69;78.43
65718;BME280;52445;52.466;-1.016;2023-01-01T01:13:39;98659.88;;;9.70;78.58
65718;BME280;52445;52.466;-1.016;2023-01-01T01:16:09;98670.34;;;9.64;77.54
65718;BME280;52445;52.466;-1.016;2023-01-01T01:18:36;98679.00;;;9.63;77.38
65718;BME280;52445;52.466;-1.016;2023-01-01T01:21:04;98670.41;;;9.61;77.63
65718;BME280;52445;52.466;-1.016;2023-01-01T01:23:31;98667.19;;;9.49;77.17
65718;BME280;52445;52.466;-1.016;2023-01-01T01:28:45;98700.03;;;9.44;76.97
65718;BME280;52445;52.466;-1.016;2023-01-01T01:31:16;98676.88;;;9.38;76.76
65718;BME280;52445;52.466;-1.016;2023-01-01T01:33:45;98678.66;;;9.36;76.43
65718;BME280;52445;52.466;-1.016;2023-01-01T01:36:12;98674.44;;;9.32;76.58
65718;BME280;52445;52.466;-1.016;2023-01-01T01:38:40;98682.31;;;9.24;75.63
65718;BME280;52445;52.466;-1.016;2023-01-01T01:41:07;98690.09;;;9.22;76.28
65718;BME280;52445;52.466;-1.016;2023-01-01T01:46:33;98715.22;;;9.14;76.03
65718;BME280;52445;52.466;-1.016;2023-01-01T01:49:12;98717.06;;;9.09;76.31
65718;BME280;52445;52.466;-1.016;2023-01-01T01:51:41;98723.13;;;9.06;75.86
65718;BME280;52445;52.466;-1.016;2023-01-01T01:54:10;98717.13;;;9.04;75.59
65718;BME280;52445;52.466;-1.016;2023-01-01T01:56:44;98723.22;;;9.02;75.50
65718;BME280;52445;52.466;-1.016;2023-01-01T01:59:13;98733.63;;;8.95;75.66
65718;BME280;52445;52.466;-1.016;2023-01-01T02:01:40;98737.97;;;8.95;75.43
65718;BME280;52445;52.466;-1.016;2023-01-01T02:04:07;98741.41;;;8.94;75.20
65718;BME280;52445;52.466;-1.016;2023-01-01T02:06:34;98726.81;;;8.91;74.82
65718;BME280;52445;52.466;-1.016;2023-01-01T02:09:03;98739.59;;;9.00;75.20
65718;BME280;52445;52.466;-1.016;2023-01-01T02:11:30;98737.88;;;8.98;75.44
65718;BME280;52445;52.466;-1.016;2023-01-01T02:13:57;98750.91;;;8.93;75.29
65718;BME280;52445;52.466;-1.016;2023-01-01T02:25:04;98761.44;;;8.81;75.04
65718;BME280;52445;52.466;-1.016;2023-01-01T02:30:11;98779.44;;;8.84;75.46
65718;BME280;52445;52.466;-1.016;2023-01-01T02:35:28;98784.72;;;8.78;75.53
65718;BME280;52445;52.466;-1.016;2023-01-01T02:40:48;98779.59;;;8.74;75.67
65718;BME280;52445;52.466;-1.016;2023-01-01T02:43:15;98784.97;;;8.62;76.07
65718;BME280;52445;52.466;-1.016;2023-01-01T02:45:49;98790.03;;;8.65;75.90
65718;BME280;52445;52.466;-1.016;2023-01-01T03:02:00;98803.84;;;8.64;76.16
65718;BME280;52445;52.466;-1.016;2023-01-01T03:08:06;98798.66;;;8.66;75.86
65718;BME280;52445;52.466;-1.016;2023-01-01T03:14:03;98804.72;;;8.63;76.32
65718;BME280;52445;52.466;-1.016;2023-01-01T03:19:15;98808.97;;;8.67;75.85
65718;BME280;52445;52.466;-1.016;2023-01-01T03:21:55;98833.00;;;8.71;75.87
65718;BME280;52445;52.466;-1.016;2023-01-01T03:24:36;98829.53;;;8.73;76.49
65718;BME280;52445;52.466;-1.016;2023-01-01T03:27:10;98824.38;;;8.73;75.82
65718;BME280;52445;52.466;-1.016;2023-01-01T03:29:40;98826.00;;;8.81;76.36
65718;BME280;52445;52.466;-1.016;2023-01-01T03:32:11;98825.91;;;8.84;75.74
65718;BME280;52445;52.466;-1.016;2023-01-01T03:34:43;98837.09;;;8.86;76.10
65718;BME280;52445;52.466;-1.016;2023-01-01T03:37:18;98840.56;;;8.85;75.94
65718;BME280;52445;52.466;-1.016;2023-01-01T03:39:50;98837.13;;;8.83;75.80
65718;BME280;52445;52.466;-1.016;2023-01-01T03:45:02;98831.03;;;8.87;75.63
65718;BME280;52445;52.466;-1.016;2023-01-01T03:47:30;98841.44;;;8.82;76.31
65718;BME280;52445;52.466;-1.016;2023-01-01T03:49:58;98843.25;;;8.77;75.61
65718;BME280;52445;52.466;-1.016;2023-01-01T04:00:24;98865.75;;;8.67;75.76
65718;BME280;52445;52.466;-1.016;2023-01-01T04:03:01;98875.34;;;8.59;75.48
65718;BME280;52445;52.466;-1.016;2023-01-01T04:05:30;98865.94;;;8.55;75.57
65718;BME280;52445;52.466;-1.016;2023-01-01T04:08:00;98867.66;;;8.51;75.81
65718;BME280;52445;52.466;-1.016;2023-01-01T04:10:29;98864.22;;;8.52;76.22
65718;BME280;52445;52.466;-1.016;2023-01-01T04:12:57;98868.56;;;8.45;76.07
65718;BME280;52445;52.466;-1.016;2023-01-01T04:15:26;98867.66;;;8.51;76.21
65718;BME280;52445;52.466;-1.016;2023-01-01T04:17:53;98872.00;;;8.47;75.33
65718;BME280;52445;52.466;-1.016;2023-01-01T04:20:20;98878.09;;;8.43;75.90
65718;BME280;52445;52.466;-1.016;2023-01-01T04:22:47;98875.50;;;8.43;76.08
65718;BME280;52445;52.466;-1.016;2023-01-01T04:25:14;98879.00;;;8.39;76.12
65718;BME280;52445;52.466;-1.016;2023-01-01T04:27:43;98880.72;;;8.37;75.88
65718;BME280;52445;52.466;-1.016;2023-01-01T04:30:11;98889.34;;;8.36;76.02
65718;BME280;52445;52.466;-1.016;2023-01-01T04:32:39;98889.38;;;8.34;76.47
65718;BME280;52445;52.466;-1.016;2023-01-01T04:35:07;98895.44;;;8.32;76.38
65718;BME280;52445;52.466;-1.016;2023-01-01T04:37:35;98892.84;;;8.32;76.33
65718;BME280;52445;52.466;-1.016;2023-01-01T04:40:02;98911.78;;;8.31;76.54
65718;BME280;52445;52.466;-1.016;2023-01-01T04:42:29;98906.56;;;8.34;76.43
65718;BME280;52445;52.466;-1.016;2023-01-01T04:44:56;98907.44;;;8.34;76.92
65718;BME280;52445;52.466;-1.016;2023-01-01T04:47:22;98906.56;;;8.34;77.04
65718;BME280;52445;52.466;-1.016;2023-01-01T04:49:49;98915.19;;;8.33;76.98
65718;BME280;52445;52.466;-1.016;2023-01-01T04:52:15;98909.22;;;8.31;75.99
65718;BME280;52445;52.466;-1.016;2023-01-01T04:54:42;98918.66;;;8.30;76.53
65718;BME280;52445;52.466;-1.016;2023-01-01T04:57:09;98921.22;;;8.32;77.00
65718;BME280;52445;52.466;-1.016;2023-01-01T04:59:35;98903.97;;;8.34;76.46
65718;BME280;52445;52.466;-1.016;2023-01-01T05:02:02;98917.72;;;8.36;76.83
65718;BME280;52445;52.466;-1.016;2023-01-01T05:04:29;98912.59;;;8.33;77.17
65718;BME280;52445;52.466;-1.016;2023-01-01T05:06:56;98908.28;;;8.35;77.00
65718;BME280;52445;52.466;-1.016;2023-01-01T05:09:22;98903.97;;;8.35;76.48
65718;BME280;52445;52.466;-1.016;2023-01-01T05:11:49;98916.88;;;8.34;76.84
65718;BME280;52445;52.466;-1.016;2023-01-01T05:14:15;98911.72;;;8.34;76.39
65718;BME280;52445;52.466;-1.016;2023-01-01T05:16:42;98908.31;;;8.33;76.20
65718;BME280;52445;52.466;-1.016;2023-01-01T05:19:09;98908.34;;;8.29;76.35
65718;BME280;52445;52.466;-1.016;2023-01-01T05:21:38;98917.00;;;8.25;75.90
65718;BME280;52445;52.466;-1.016;2023-01-01T05:24:07;98925.63;;;8.23;76.18
65718;BME280;52445;52.466;-1.016;2023-01-01T05:26:37;98926.53;;;8.19;76.38
65718;BME280;52445;52.466;-1.016;2023-01-01T05:29:04;98912.78;;;8.16;76.84
65718;BME280;52445;52.466;-1.016;2023-01-01T05:31:41;98917.97;;;8.13;76.96
65718;BME280;52445;52.466;-1.016;2023-01-01T05:34:07;98930.03;;;8.12;76.45
65718;BME280;52445;52.466;-1.016;2023-01-01T05:36:35;98934.31;;;8.13;76.80
65718;BME280;52445;52.466;-1.016;2023-01-01T05:39:06;98936.91;;;8.12;76.44
65718;BME280;52445;52.466;-1.016;2023-01-01T05:41:33;98946.41;;;8.08;76.26
65718;BME280;52445;52.466;-1.016;2023-01-01T05:44:03;98941.28;;;8.05;77.06
65718;BME280;52445;52.466;-1.016;2023-01-01T05:46:30;98958.50;;;8.03;77.35
65718;BME280;52445;52.466;-1.016;2023-01-01T05:48:57;98962.84;;;7.97;77.82
65718;BME280;52445;52.466;-1.016;2023-01-01T05:51:26;98961.09;;;8.01;76.60
65718;BME280;52445;52.466;-1.016;2023-01-01T05:53:53;98977.44;;;7.98;77.57
65718;BME280;52445;52.466;-1.016;2023-01-01T05:56:20;98969.72;;;7.97;77.56
65718;BME280;52445;52.466;-1.016;2023-01-01T05:58:47;98967.19;;;7.95;77.05
65718;BME280;52445;52.466;-1.016;2023-01-01T06:01:17;98974.94;;;7.94;77.21
65718;BME280;52445;52.466;-1.016;2023-01-01T06:03:45;98976.63;;;7.95;77.86
65718;BME280;52445;52.466;-1.016;2023-01-01T06:06:17;99001.53;;;7.94;77.11
65718;BME280;52445;52.466;-1.016;2023-01-01T06:08:54;99011.88;;;7.91;77.83
65718;BME280;52445;52.466;-1.016;2023-01-01T06:11:22;99005.00;;;7.92;77.75
65718;BME280;52445;52.466;-1.016;2023-01-01T06:13:53;99018.78;;;7.92;77.24
65718;BME280;52445;52.466;-1.016;2023-01-01T06:16:20;99022.25;;;7.88;78.21
65718;BME280;52445;52.466;-1.016;2023-01-01T06:18:47;99040.28;;;7.90;77.08
65718;BME280;52445;52.466;-1.016;2023-01-01T06:21:17;99027.41;;;7.88;76.77
65718;BME280;52445;52.466;-1.016;2023-01-01T06:23:44;99056.66;;;7.86;77.28
65718;BME280;52445;52.466;-1.016;2023-01-01T06:28:49;99054.06;;;7.86;77.25
65718;BME280;52445;52.466;-1.016;2023-01-01T06:31:18;99047.19;;;7.84;77.98
65718;BME280;52445;52.466;-1.016;2023-01-01T06:33:46;99061.81;;;7.86;76.95
65718;BME280;52445;52.466;-1.016;2023-01-01T06:36:14;99060.06;;;7.83;76.91
65718;BME280;52445;52.466;-1.016;2023-01-01T06:38:44;99061.81;;;7.81;77.83
65718;BME280;52445;52.466;-1.016;2023-01-01T06:41:13;99054.09;;;7.81;77.56
65718;BME280;52445;52.466;-1.016;2023-01-01T06:43:40;99068.69;;;7.82;77.35
65718;BME280;52445;52.466;-1.016;2023-01-01T06:46:13;99067.00;;;7.78;76.81
65718;BME280;52445;52.466;-1.016;2023-01-01T06:48:42;99078.19;;;7.78;76.96
65718;BME280;52445;52.466;-1.016;2023-01-01T06:51:11;99085.91;;;7.80;78.01
65718;BME280;52445;52.466;-1.016;2023-01-01T06:53:39;99085.94;;;7.74;77.63
65718;BME280;52445;52.466;-1.016;2023-01-01T06:56:06;99092.78;;;7.75;77.00
65718;BME280;52445;52.466;-1.016;2023-01-01T06:58:33;99099.66;;;7.76;77.52
65718;BME280;52445;52.466;-1.016;2023-01-01T07:03:41;99097.94;;;7.75;77.72
65718;BME280;52445;52.466;-1.016;2023-01-01T07:06:08;99092.78;;;7.78;77.70
65718;BME280;52445;52.466;-1.016;2023-01-01T07:08:36;99101.38;;;7.77;77.01
65718;BME280;52445;52.466;-1.016;2023-01-01T07:11:03;99110.81;;;7.81;76.36
65718;BME280;52445;52.466;-1.016;2023-01-01T07:13:30;99108.22;;;7.84;76.92
65718;BME280;52445;52.466;-1.016;2023-01-01T07:15:57;99118.53;;;7.84;77.59
65718;BME280;52445;52.466;-1.016;2023-01-01T07:18:24;99116.78;;;7.86;76.45
65718;BME280;52445;52.466;-1.016;2023-01-01T07:20:53;99112.47;;;7.88;76.49
65718;BME280;52445;52.466;-1.016;2023-01-01T07:23:20;99110.75;;;7.87;76.33
65718;BME280;52445;52.466;-1.016;2023-01-01T07:25:48;99118.53;;;7.84;76.83
65718;BME280;52445;52.466;-1.016;2023-01-01T07:28:15;99119.34;;;7.88;77.32
65718;BME280;52445;52.466;-1.016;2023-01-01T07:30:42;99123.69;;;7.84;76.56
65718;BME280;52445;52.466;-1.016;2023-01-01T07:33:14;99124.53;;;7.83;76.55
65718;BME280;52445;52.466;-1.016;2023-01-01T07:35:41;99115.09;;;7.80;76.46
65718;BME280;52445;52.466;-1.016;2023-01-01T07:38:10;99122.00;;;7.80;76.73
65718;BME280;52445;52.466;-1.016;2023-01-01T07:40:37;99116.84;;;7.77;77.08
65718;BME280;52445;52.466;-1.016;2023-01-01T07:43:03;99116.84;;;7.77;76.45
65718;BME280;52445;52.466;-1.016;2023-01-01T07:45:31;99126.28;;;7.76;77.41
65718;BME280;52445;52.466;-1.016;2023-01-01T07:47:58;99139.19;;;7.78;76.57
65718;BME280;52445;52.466;-1.016;2023-01-01T07:50:28;99137.47;;;7.74;77.26
65718;BME280;52445;52.466;-1.016;2023-01-01T07:52:55;99137.47;;;7.74;77.09
65718;BME280;52445;52.466;-1.016;2023-01-01T07:55:22;99152.94;;;7.74;77.39
65718;BME280;52445;52.466;-1.016;2023-01-01T07:57:48;99155.53;;;7.75;76.53
65718;BME280;52445;52.466;-1.016;2023-01-01T08:00:18;99163.25;;;7.74;76.92
65718;BME280;52445;52.466;-1.016;2023-01-01T08:02:45;99164.97;;;7.71;76.55
65718;BME280;52445;52.466;-1.016;2023-01-01T08:05:12;99154.66;;;7.71;76.41
65718;BME280;52445;52.466;-1.016;2023-01-01T08:07:39;99158.09;;;7.74;76.06
65718;BME280;52445;52.466;-1.016;2023-01-01T08:10:06;99152.94;;;7.74;77.28
65718;BME280;52445;52.466;-1.016;2023-01-01T08:12:33;99146.97;;;7.70;76.97
65718;BME280;52445;52.466;-1.016;2023-01-01T08:14:59;99141.78;;;7.73;76.64
65718;BME280;52445;52.466;-1.016;2023-01-01T08:17:26;99142.63;;;7.74;76.71
65718;BME280;52445;52.466;-1.016;2023-01-01T08:19:53;99135.78;;;7.72;77.03
65718;BME280;52445;52.466;-1.016;2023-01-01T08:22:19;99141.75;;;7.75;76.78
65718;BME280;52445;52.466;-1.016;2023-01-01T08:24:47;99140.94;;;7.72;75.76
65718;BME280;52445;52.466;-1.016;2023-01-01T08:27:14;99149.53;;;7.70;76.27
65718;BME280;52445;52.466;-1.016;2023-01-01T08:29:42;99140.91;;;7.76;76.97
65718;BME280;52445;52.466;-1.016;2023-01-01T08:32:09;99134.03;;;7.75;75.55
65718;BME280;52445;52.466;-1.016;2023-01-01T08:34:36;99142.63;;;7.77;75.64
65718;BME280;52445;52.466;-1.016;2023-01-01T08:37:03;99140.88;;;7.79;76.48
65718;BME280;52445;52.466;-1.016;2023-01-01T08:39:30;99140.03;;;7.78;76.26
65718;BME280;52445;52.466;-1.016;2023-01-01T08:41:57;99149.47;;;7.86;75.52
65718;BME280;52445;52.466;-1.016;2023-01-01T08:44:24;99144.25;;;7.90;76.23
65718;BME280;52445;52.466;-1.016;2023-01-01T08:46:51;99146.81;;;7.96;76.40
65718;BME280;52445;52.466;-1.016;2023-01-01T08:49:18;99164.78;;;8.06;75.98
65718;BME280;52445;52.466;-1.016;2023-01-01T08:51:45;99171.53;;;8.26;75.06
65718;BME280;52445;52.466;-1.016;2023-01-01T08:54:12;99186.84;;;8.49;75.82
65718;BME280;52445;52.466;-1.016;2023-01-01T08:56:38;99179.78;;;8.71;74.77
65718;BME280;52445;52.466;-1.016;2023-01-01T08:59:05;99191.63;;;8.94;73.99
65718;BME280;52445;52.466;-1.016;2023-01-01T09:01:31;99180.22;;;9.17;74.02
65718;BME280;52445;52.466;-1.016;2023-01-01T09:03:58;99180.66;;;9.50;73.66
65718;BME280;52445;52.466;-1.016;2023-01-01T09:06:25;99185.56;;;9.72;72.77
65718;BME280;52445;52.466;-1.016;2023-01-01T09:08:51;99188.69;;;9.96;71.83
65718;BME280;52445;52.466;-1.016;2023-01-01T09:11:22;99178.31;;;9.99;71.22
65718;BME280;52445;52.466;-1.016;2023-01-01T09:13:50;99188.44;;;10.15;71.04
65718;BME280;52445;52.466;-1.016;2023-01-01T09:16:17;99184.69;;;10.35;70.85
65718;BME280;52445;52.466;-1.016;2023-01-01T09:18:44;99183.16;;;10.79;71.58
65718;BME280;52445;52.466;-1.016;2023-01-01T09:21:11;99195.41;;;11.17;70.79
65718;BME280;52445;52.466;-1.016;2023-01-01T09:23:38;99190.25;;;11.60;69.97
65718;BME280;52445;52.466;-1.016;2023-01-01T09:26:06;99184.34;;;11.94;67.74
65718;BME280;52445;52.466;-1.016;2023-01-01T09:28:34;99186.72;;;12.03;68.13
65718;BME280;52445;52.466;-1.016;2023-01-01T09:31:02;99181.19;;;12.20;67.17
65718;BME280;52445;52.466;-1.016;2023-01-01T09:33:31;99189.53;;;12.33;66.88
65718;BME280;52445;52.466;-1.016;2023-01-01T09:38:57;99227.38;;;12.80;66.02
65718;BME280;52445;52.466;-1.016;2023-01-01T09:47:27;99215.81;;;13.26;63.60
65718;BME280;52445;52.466;-1.016;2023-01-01T09:50:00;99219.53;;;13.48;62.73
65718;BME280;52445;52.466;-1.016;2023-01-01T09:52:36;99219.16;;;13.62;63.25
65718;BME280;52445;52.466;-1.016;2023-01-01T09:55:26;99231.69;;;13.80;61.17
65718;BME280;52445;52.466;-1.016;2023-01-01T09:57:54;99236.69;;;14.16;62.20
65718;BME280;52445;52.466;-1.016;2023-01-01T10:00:21;99237.66;;;14.40;61.52
65718;BME280;52445;52.466;-1.016;2023-01-01T10:13:58;99296.00;;;15.45;58.85
65718;BME280;52445;52.466;-1.016;2023-01-01T10:21:55;99297.19;;;15.61;57.23
65718;BME280;52445;52.466;-1.016;2023-01-01T10:30:07;99291.53;;;15.98;57.08
65718;BME280;52445;52.466;-1.016;2023-01-01T10:32:38;99290.84;;;16.16;56.98
65718;BME280;52445;52.466;-1.016;2023-01-01T10:35:17;99278.84;;;16.35;56.79
65718;BME280;52445;52.466;-1.016;2023-01-01T10:37:44;99287.22;;;16.65;56.45
65718;BME280;52445;52.466;-1.016;2023-01-01T10:40:16;99287.31;;;16.85;55.65
65718;BME280;52445;52.466;-1.016;2023-01-01T10:42:47;99282.94;;;16.85;55.40
65718;BME280;52445;52.466;-1.016;2023-01-01T10:45:16;99283.97;;;16.81;54.91
65718;BME280;52445;52.466;-1.016;2023-01-01T10:48:12;99282.47;;;16.53;53.24
65718;BME280;52445;52.466;-1.016;2023-01-01T10:50:55;99285.66;;;15.91;54.34
65718;BME280;52445;52.466;-1.016;2023-01-01T10:53:31;99292.47;;;15.46;56.23
65718;BME280;52445;52.466;-1.016;2023-01-01T10:56:03;99299.88;;;15.07;56.73
65718;BME280;52445;52.466;-1.016;2023-01-01T11:01:10;99305.75;;;14.58;57.72
65718;BME280;52445;52.466;-1.016;2023-01-01T11:06:37;99295.56;;;14.22;58.51
65718;BME280;52445;52.466;-1.016;2023-01-01T11:09:05;99295.50;;;13.93;59.21
65718;BME280;52445;52.466;-1.016;2023-01-01T11:11:42;99296.47;;;13.91;59.39
65718;BME280;52445;52.466;-1.016;2023-01-01T11:16:58;99295.44;;;13.65;60.61
65718;BME280;52445;52.466;-1.016;2023-01-01T11:22:03;99300.56;;;13.68;60.37
65718;BME280;52445;52.466;-1.016;2023-01-01T11:24:32;99297.00;;;13.37;61.90
65718;BME280;52445;52.466;-1.016;2023-01-01T11:27:21;99301.91;;;13.15;61.76
65718;BME280;52445;52.466;-1.016;2023-01-01T11:29:48;99305.84;;;12.95;62.55
65718;BME280;52445;52.466;-1.016;2023-01-01T11:32:23;99294.53;;;12.97;62.84
65718;BME280;52445;52.466;-1.016;2023-01-01T11:35:02;99306.00;;;12.89;62.96
65718;BME280;52445;52.466;-1.016;2023-01-01T11:37:34;99299.16;;;12.84;63.59
65718;BME280;52445;52.466;-1.016;2023-01-01T11:40:05;99301.88;;;12.80;63.39
65718;BME280;52445;52.466;-1.016;2023-01-01T11:42:34;99296.50;;;12.88;63.93
65718;BME280;52445;52.466;-1.016;2023-01-01T11:45:05;99288.38;;;13.00;63.23
65718;BME280;52445;52.466;-1.016;2023-01-01T11:52:50;99278.50;;;12.80;63.88
65718;BME280;52445;52.466;-1.016;2023-01-01T11:55:23;99280.47;;;12.70;63.78
65718;BME280;52445;52.466;-1.016;2023-01-01T11:58:01;99272.09;;;12.57;63.59
65718;BME280;52445;52.466;-1.016;2023-01-01T12:00:32;99274.06;;;12.47;64.32
65718;BME280;52445;52.466;-1.016;2023-01-01T12:03:05;99275.09;;;12.40;64.45
65718;BME280;52445;52.466;-1.016;2023-01-01T12:08:50;99293.56;;;12.27;64.43
65718;BME280;52445;52.466;-1.016;2023-01-01T12:14:04;99278.31;;;12.12;66.09
65718;BME280;52445;52.466;-1.016;2023-01-01T12:19:19;99281.94;;;12.01;65.21
65718;BME280;52445;52.466;-1.016;2023-01-01T12:21:52;99290.00;;;11.87;65.36
65718;BME280;52445;52.466;-1.016;2023-01-01T12:24:20;99280.53;;;11.86;66.44
65718;BME280;52445;52.466;-1.016;2023-01-01T12:27:04;99274.56;;;11.81;65.92
65718;BME280;52445;52.466;-1.016;2023-01-01T12:30:01;99287.75;;;11.70;66.73
65718;BME280;52445;52.466;-1.016;2023-01-01T12:43:37;99267.09;;;11.65;66.70
65718;BME280;52445;52.466;-1.016;2023-01-01T12:48:58;99268.91;;;11.62;66.91
65718;BME280;52445;52.466;-1.016;2023-01-01T13:00:15;99260.97;;;11.68;67.42
65718;BME280;52445;52.466;-1.016;2023-01-01T13:02:49;99264.53;;;11.64;67.75
65718;BME280;52445;52.466;-1.016;2023-01-01T13:05:23;99263.72;;;11.62;66.88
65718;BME280;52445;52.466;-1.016;2023-01-01T13:07:55;99262.06;;;11.57;66.56
65718;BME280;52445;52.466;-1.016;2023-01-01T13:10:32;99264.72;;;11.54;67.76
65718;BME280;52445;52.466;-1.016;2023-01-01T13:13:00;99269.06;;;11.52;67.96
65718;BME280;52445;52.466;-1.016;2023-01-01T13:15:45;99274.38;;;11.46;66.86
65718;BME280;52445;52.466;-1.016;2023-01-01T13:32:00;99273.13;;;11.20;67.11
65718;BME280;52445;52.466;-1.016;2023-01-01T13:34:37;99265.28;;;11.23;68.18
65718;BME280;52445;52.466;-1.016;2023-01-01T13:48:42;99273.06;;;11.23;68.34
65718;BME280;52445;52.466;-1.016;2023-01-01T13:51:35;99274.06;;;11.16;68.54
65718;BME280;52445;52.466;-1.016;2023-01-01T14:02:41;99268.09;;;11.11;69.49
65718;BME280;52445;52.466;-1.016;2023-01-01T14:07:50;99262.41;;;11.39;67.99
65718;BME280;52445;52.466;-1.016;2023-01-01T14:13:14;99275.22;;;10.99;69.74
65718;BME280;52445;52.466;-1.016;2023-01-01T14:18:31;99270.22;;;10.87;69.25
65718;BME280;52445;52.466;-1.016;2023-01-01T14:20:59;99269.47;;;10.78;70.34
65718;BME280;52445;52.466;-1.016;2023-01-01T14:26:07;99268.66;;;10.76;69.51
65718;BME280;52445;52.466;-1.016;2023-01-01T14:28:35;99265.22;;;10.74;69.63
65718;BME280;52445;52.466;-1.016;2023-01-01T14:31:04;99268.66;;;10.76;70.03
65718;BME280;52445;52.466;-1.016;2023-01-01T14:33:36;99273.13;;;10.66;70.01
65718;BME280;52445;52.466;-1.016;2023-01-01T14:36:12;99276.63;;;10.65;70.62
65718;BME280;52445;52.466;-1.016;2023-01-01T14:38:45;99280.97;;;10.62;69.62
65718;BME280;52445;52.466;-1.016;2023-01-01T14:43:51;99282.66;;;10.63;70.49
65718;BME280;52445;52.466;-1.016;2023-01-01T14:46:20;99281.06;;;10.56;70.40
65718;BME280;52445;52.466;-1.016;2023-01-01T14:48:51;99280.19;;;10.58;70.51
65718;BME280;52445;52.466;-1.016;2023-01-01T14:51:21;99282.78;;;10.57;69.59
65718;BME280;52445;52.466;-1.016;2023-01-01T14:53:49;99284.53;;;10.54;69.87
65718;BME280;52445;52.466;-1.016;2023-01-01T14:56:35;99288.94;;;10.48;69.85
65718;BME280;52445;52.466;-1.016;2023-01-01T15:04:39;99291.56;;;10.43;69.85
65718;BME280;52445;52.466;-1.016;2023-01-01T15:07:27;99293.38;;;10.38;70.60
65718;BME280;52445;52.466;-1.016;2023-01-01T15:09:56;99289.91;;;10.39;70.55
65718;BME280;52445;52.466;-1.016;2023-01-01T15:12:26;99287.31;;;10.37;70.55
65718;BME280;52445;52.466;-1.016;2023-01-01T15:14:54;99284.75;;;10.36;70.81
65718;BME280;52445;52.466;-1.016;2023-01-01T15:17:23;99286.56;;;10.31;70.64
65718;BME280;52445;52.466;-1.016;2023-01-01T15:20:19;99284.88;;;10.28;71.03
65718;BME280;52445;52.466;-1.016;2023-01-01T15:22:46;99291.78;;;10.27;70.20
65718;BME280;52445;52.466;-1.016;2023-01-01T15:25:14;99296.91;;;10.31;70.35
65718;BME280;52445;52.466;-1.016;2023-01-01T15:27:41;99289.16;;;10.29;70.43
65718;BME280;52445;52.466;-1.016;2023-01-01T15:30:31;99297.00;;;10.24;70.96
65718;BME280;52445;52.466;-1.016;2023-01-01T15:33:08;99303.06;;;10.23;71.18
65718;BME280;52445;52.466;-1.016;2023-01-01T15:35:38;99291.91;;;10.20;70.60
65718;BME280;52445;52.466;-1.016;2023-01-01T15:38:11;99301.41;;;10.16;71.09
65718;BME280;52445;52.466;-1.016;2023-01-01T15:40:42;99302.25;;;10.20;70.83
65718;BME280;52445;52.466;-1.016;2023-01-01T15:43:20;99303.19;;;10.14;71.36
65718;BME280;52445;52.466;-1.016;2023-01-01T15:45:51;99298.84;;;10.13;71.58
65718;BME280;52445;52.466;-1.016;2023-01-01T15:48:24;99300.59;;;10.14;70.82
65718;BME280;52445;52.466;-1.016;2023-01-01T15:53:44;99297.59;;;10.44;70.25
65718;BME280;52445;52.466;-1.016;2023-01-01T15:56:12;99295.28;;;10.23;71.40
65718;BME280;52445;52.466;-1.016;2023-01-01T16:01:23;99283.41;;;10.10;71.28
65718;BME280;52445;52.466;-1.016;2023-01-01T16:03:53;99295.50;;;10.08;72.32
65718;BME280;52445;52.466;-1.016;2023-01-01T16:06:23;99293.78;;;10.07;71.54
65718;BME280;52445;52.466;-1.016;2023-01-01T16:08:50;99280.88;;;10.03;71.92
65718;BME280;52445;52.466;-1.016;2023-01-01T16:11:16;99279.16;;;10.06;72.05
65718;BME280;52445;52.466;-1.016;2023-01-01T16:13:43;99274.81;;;10.05;72.37
65718;BME280;52445;52.466;-1.016;2023-01-01T16:16:27;99280.88;;;10.03;72.02
65718;BME280;52445;52.466;-1.016;2023-01-01T16:18:56;99271.38;;;10.06;72.70
65718;BME280;52445;52.466;-1.016;2023-01-01T16:21:25;99279.19;;;10.01;72.99
65718;BME280;52445;52.466;-1.016;2023-01-01T16:23:53;99267.94;;;10.03;72.59
65718;BME280;52445;52.466;-1.016;2023-01-01T16:26:20;99276.63;;;9.99;72.82
65718;BME280;52445;52.466;-1.016;2023-01-01T16:28:47;99287.84;;;10.00;73.22
65718;BME280;52445;52.466;-1.016;2023-01-01T16:31:17;99281.00;;;9.96;72.90